AirNav   Air Wisconsin pilot careers
 
 913 users online  

2J3 Louisville Municipal Airport
Louisville, Georgia, USA


FAA INFORMATION EFFECTIVE 07 DECEMBER 2017

Location

FAA Identifier: 2J3
Lat/Long: 32-59-09.4000N / 082-23-05.3000W
32-59.156667N / 082-23.088333W
32.9859444 / -82.3848056
(estimated)
Elevation: 327.9 ft. / 99.9 m (surveyed)
Variation: 03W (1985)
From city: 2 miles SE of LOUISVILLE, GA
Time zone: UTC -5 (UTC -4 during Daylight Saving Time)
Zip code: 30434

Airport Operations

Airport use: Open to the public
Control tower: no
ARTCC: ATLANTA CENTER
FSS: MACON FLIGHT SERVICE STATION
NOTAMs facility: MCN (NOTAM-D service available)
Attendance: UNATNDD
Wind indicator: lighted
Segmented circle: yes
Lights: ACTVT MIRL RY 13/31 AND PAPI RY 13 & 31 - CTAF.
Beacon: white-green (lighted land airport)
Operates sunset to sunrise.

Airport Communications

CTAF: 122.9
WX AWOS-3PT: 119.35 (478-625-8303)
AUGUSTA APPROACH: 126.8
AUGUSTA DEPARTURE: 126.8

Nearby radio navigation aids

VOR radial/distance  VOR name  Freq  Var
DBNr047/33.9DUBLIN VORTAC113.1005W

 
NDB name  Hdg/Dist  Freq  Var  ID
EMANUEL COUNTY016/19.530906WEEX . . -..-
MILLEN290/21.720505WLNH .-.. -. ....
EMORY218/34.638504WEMR . -- .-.

Airport Services

Fuel available: 100LL JET-A
Parking: hangars and tiedowns
Airframe service: MAJOR
Powerplant service: MAJOR
Bottled oxygen: NONE
Bulk oxygen: NONE

Runway Information

Runway 13/31

Dimensions: 5002 x 100 ft. / 1525 x 30 m
Surface: asphalt, in good condition
Weight bearing capacity: 
Single wheel: 26.0
Runway edge lights: medium intensity
RUNWAY 13  RUNWAY 31
Latitude: 32-59.384502N32-58.927245N
Longitude: 082-23.495093W082-22.680707W
Elevation: 327.9 ft.293.6 ft.
Gradient: 0.6%0.7% UP
Traffic pattern: leftleft
Markings: nonprecision, in fair conditionnonprecision, in fair condition
Visual slope indicator: 2-light PAPI on left (3.83 degrees glide path)2-light PAPI on left (3.65 degrees glide path)
Touchdown point: yes, no lightsyes, no lights
Obstructions: 39 ft. trees, 1526 ft. from runway, 350 ft. right of centerline, 34:1 slope to clearnone

Airport Ownership and Management from official FAA records

Ownership: Publicly-owned
Owner: CITY OF LOUISVILLE
CITY HALL, PO BOX 527
LOUISVILLE, GA 30434
Phone 478-625-3166
Manager: RICHARD SAPP
PO BOX 527
LOUISVILLE, GA 30434
Phone 478-625-3166

Airport Operational Statistics

Aircraft based on the field: 16
Single engine airplanes: 11
Ultralights: 5
    
Aircraft operations: avg 20/day *
68% local general aviation
32% transient general aviation
* for 12-month period ending 31 December 2016

Instrument Procedures

NOTE: All procedures below are presented as PDF files. If you need a reader for these files, you should download the free Adobe Reader.

NOT FOR NAVIGATION. Please procure official charts for flight.
FAA instrument procedures published for use between 7 December 2017 at 0901Z and 4 January 2018 at 0900Z.

 
IAPs - Instrument Approach Procedures
RNAV (GPS) RWY 13 **CHANGED**   download (190KB)
RNAV (GPS) RWY 31   download (182KB)
NOTE: Special Take-Off Minimums/Departure Procedures apply   download (665KB)

Other nearby airports with instrument procedures:

KBXG - Burke County Airport (20 nm E)
2J5 - Millen Airport (22 nm E)
KSBO - East Georgia Regional Airport (23 nm S)
KOKZ - Kaolin Field Airport (23 nm W)
KAGS - Augusta Regional Airport at Bush Field (31 nm NE)
 
Loc | Ops | Rwys | IFR | FBO | Links
Com | Nav | Svcs | Stats | Notes


 
Area around 2J3 (Louisville Municipal Airport)
 
Road maps at: MapQuest Bing Google
 
Aerial photo
WARNING: Photo may not be current or correct
Aerial photo of 2J3 (Louisville Municipal Airport)
Do you have a better or more recent aerial photo of Louisville Municipal Airport that you would like to share? If so, please send us your photo.

 
Sectional chart

 
Airport distance calculator
Flying to Louisville Municipal Airport? Find the distance to fly.

From to 2J3

Sunrise and sunset
Times for 17-Dec-2017
 Local
(UTC-5)
 Zulu
(UTC)
Morning civil twilight07:0012:00
Sunrise07:2712:27
Sunset17:2422:24
Evening civil twilight17:5122:51

Current date and time
Zulu (UTC)  17-Dec-2017 20:21:41
Local (UTC-5)  17-Dec-2017 15:21:41
 
METAR
KSBO 
23nm S 
171950Z AUTO 02004KT 10SM OVC036 18/05 A3020 RMK AO2
KOKZ 
23nm W 
171955Z AUTO 19004KT 10SM BKN030 OVC035 17/02 A3020 RMK AO2 T01730021
KAGS 
31nm NE 
171953Z 00000KT 10SM CLR 19/M01 A3019 RMK AO2 SLP225 T01891006
KHQU 
33nm N 
171955Z AUTO 00000KT 10SM SCT037 BKN075 OVC120 13/01 A3025 RMK AO2 T01340011
KDNL 
34nm NE 
171953Z AUTO 06004KT 10SM CLR 15/01 A3021 RMK AO2 SLP228 T01500011
KDBN 
39nm SW 
171955Z AUTO 18003KT 10SM SCT027 BKN036 18/05 A3021 RMK AO2
KMLJ 
44nm W 
171955Z AUTO 00000KT 10SM OVC030 17/05 A3019 RMK AO2
KTBR 
45nm SE 
171955Z AUTO 22004KT 10SM SCT028 19/00 A3022 RMK AO2 T01890000
KJYL 
45nm SE 
171955Z AUTO 00000KT 10SM SCT030 19/04 A3022 RMK AO2 T01860042
TAF
KAGS 
31nm NE 
171724Z 1718/1818 VRB03KT P6SM SCT200 FM172100 23005KT P6SM SCT020 BKN040 OVC100 FM180000 VRB03KT P6SM OVC040 FM180600 00000KT P6SM OVC025 FM181200 00000KT 4SM BR OVC015
KDNL 
34nm NE 
171724Z 1718/1818 VRB04KT P6SM SCT200 FM172100 23005KT P6SM SCT020 BKN040 OVC100 FM180000 VRB03KT P6SM OVC040 FM180600 00000KT P6SM OVC025
NOTAMs
Click for the latest NOTAMs
NOTAMs are issued by the DoD/FAA and will open in a separate window not controlled by AirNav.

 

 
 

FBO, Fuel Providers, and Aircraft Ground Support

  
 Business Name 
 
 Contact 
 
 Services / Description 
 
Fuel Prices
 
Comments
  
City of Louisville 478-625-3166
no information available

If you are affiliated with City of Louisville and would like to show here your services, contact info, web link, logo, and more, click here
100LL Jet A
SS $3.95 $2.99 
 Updated 06-Dec-2017
 
   write
SS=Self service
Update Fuel Prices
 

Aviation Businesses, Services, and Facilities

  
 Business Name 
 
 Contact 
 
 Services / Description 
 
Distance
 
Comments
  
 Watson Aero LLC
706-550-8628
[email]
Aircraft parking (ramp or tiedown), Passenger terminal and lounge, Aircraft maintenance, Aircraft modifications, Aircraft cleaning / washing / detailing

More info about Watson Aero LLC
on airport  
   write
 

Would you like to see your business listed on this page?

 If your business provides an interesting product or service to pilots, flight crews, aircraft, or users of the Louisville Municipal Airport, you should consider listing it here.  To start the listing process, click on the button below
 
Add a business
 

Other Pages about Louisville Municipal Airport

Update a link
 
Copyright © AirNav, LLC. All rights reserved. Privacy Policy  Contact